sensor_id;sensor_type;location;lat;lon;timestamp;P1;durP1;ratioP1;P2;durP2;ratioP2
4903;SDS011;2467;48.142;11.616;2023-01-26T00:00:13;22.42;;;15.48;;
4903;SDS011;2467;48.142;11.616;2023-01-26T00:00:47;25.08;;;14.70;;
4903;SDS011;2467;48.142;11.616;2023-01-26T00:01:19;22.00;;;15.95;;
4903;SDS011;2467;48.142;11.616;2023-01-26T00:01:53;19.02;;;13.98;;
4903;SDS011;2467;48.142;11.616;2023-01-26T00:02:26;18.50;;;13.10;;
4903;SDS011;2467;48.142;11.616;2023-01-26T00:02:58;20.65;;;14.35;;
4903;SDS011;2467;48.142;11.616;2023-01-26T00:03:31;19.38;;;14.05;;
4903;SDS011;2467;48.142;11.616;2023-01-26T00:04:04;18.88;;;14.70;;
4903;SDS011;2467;48.142;11.616;2023-01-26T00:04:36;23.27;;;14.88;;
4903;SDS011;2467;48.142;11.616;2023-01-26T00:05:09;24.38;;;16.10;;
4903;SDS011;2467;48.142;11.616;2023-01-26T00:05:41;21.73;;;13.95;;
4903;SDS011;2467;48.142;11.616;2023-01-26T00:06:15;18.90;;;13.18;;
4903;SDS011;2467;48.142;11.616;2023-01-26T00:06:49;20.73;;;14.07;;
4903;SDS011;2467;48.142;11.616;2023-01-26T00:07:21;20.58;;;14.85;;
4903;SDS011;2467;48.142;11.616;2023-01-26T00:07:53;22.48;;;13.95;;
4903;SDS011;2467;48.142;11.616;2023-01-26T00:08:26;21.83;;;13.55;;
4903;SDS011;2467;48.142;11.616;2023-01-26T00:08:58;19.10;;;13.60;;
4903;SDS011;2467;48.142;11.616;2023-01-26T00:09:30;23.75;;;14.73;;
4903;SDS011;2467;48.142;11.616;2023-01-26T00:10:02;19.77;;;14.20;;
4903;SDS011;2467;48.142;11.616;2023-01-26T00:10:35;19.50;;;13.40;;
4903;SDS011;2467;48.142;11.616;2023-01-26T00:11:07;19.60;;;14.38;;
4903;SDS011;2467;48.142;11.616;2023-01-26T00:11:41;22.00;;;14.70;;
4903;SDS011;2467;48.142;11.616;2023-01-26T00:12:13;17.73;;;13.48;;
4903;SDS011;2467;48.142;11.616;2023-01-26T00:12:45;24.55;;;15.05;;
4903;SDS011;2467;48.142;11.616;2023-01-26T00:13:18;21.50;;;14.32;;
4903;SDS011;2467;48.142;11.616;2023-01-26T00:13:50;20.20;;;13.68;;
4903;SDS011;2467;48.142;11.616;2023-01-26T00:14:22;19.50;;;14.10;;
4903;SDS011;2467;48.142;11.616;2023-01-26T00:14:55;20.27;;;14.38;;
4903;SDS011;2467;48.142;11.616;2023-01-26T00:15:26;19.33;;;14.10;;
4903;SDS011;2467;48.142;11.616;2023-01-26T00:15:58;17.45;;;12.95;;
4903;SDS011;2467;48.142;11.616;2023-01-26T00:16:32;20.85;;;15.15;;
4903;SDS011;2467;48.142;11.616;2023-01-26T00:17:03;23.52;;;14.65;;
4903;SDS011;2467;48.142;11.616;2023-01-26T00:17:35;19.27;;;12.70;;
4903;SDS011;2467;48.142;11.616;2023-01-26T00:18:08;21.63;;;13.85;;
4903;SDS011;2467;48.142;11.616;2023-01-26T00:18:41;22.05;;;14.10;;
4903;SDS011;2467;48.142;11.616;2023-01-26T00:19:13;21.55;;;15.85;;
4903;SDS011;2467;48.142;11.616;2023-01-26T00:19:46;21.88;;;14.52;;
4903;SDS011;2467;48.142;11.616;2023-01-26T00:20:18;20.33;;;14.02;;
4903;SDS011;2467;48.142;11.616;2023-01-26T00:20:53;25.10;;;15.40;;
4903;SDS011;2467;48.142;11.616;2023-01-26T00:21:28;20.08;;;14.07;;
4903;SDS011;2467;48.142;11.616;2023-01-26T00:22:00;19.95;;;13.57;;
4903;SDS011;2467;48.142;11.616;2023-01-26T00:22:32;20.55;;;15.15;;
4903;SDS011;2467;48.142;11.616;2023-01-26T00:23:05;22.08;;;14.43;;
4903;SDS011;2467;48.142;11.616;2023-01-26T00:23:36;22.48;;;15.07;;
4903;SDS011;2467;48.142;11.616;2023-01-26T00:24:08;22.00;;;14.70;;
4903;SDS011;2467;48.142;11.616;2023-01-26T00:24:41;20.23;;;13.27;;
4903;SDS011;2467;48.142;11.616;2023-01-26T00:25:13;24.70;;;15.35;;
4903;SDS011;2467;48.142;11.616;2023-01-26T00:25:45;21.08;;;14.43;;
4903;SDS011;2467;48.142;11.616;2023-01-26T00:26:19;20.58;;;14.13;;
4903;SDS011;2467;48.142;11.616;2023-01-26T00:26:52;18.92;;;12.93;;
4903;SDS011;2467;48.142;11.616;2023-01-26T00:27:24;20.70;;;14.27;;
4903;SDS011;2467;48.142;11.616;2023-01-26T00:27:57;19.23;;;12.93;;
4903;SDS011;2467;48.142;11.616;2023-01-26T00:28:29;20.73;;;12.80;;
4903;SDS011;2467;48.142;11.616;2023-01-26T00:29:01;15.48;;;12.60;;
4903;SDS011;2467;48.142;11.616;2023-01-26T00:29:33;21.73;;;13.68;;
4903;SDS011;2467;48.142;11.616;2023-01-26T00:30:06;19.55;;;13.27;;
4903;SDS011;2467;48.142;11.616;2023-01-26T00:30:39;17.83;;;12.13;;
4903;SDS011;2467;48.142;11.616;2023-01-26T00:31:13;21.30;;;15.18;;
4903;SDS011;2467;48.142;11.616;2023-01-26T00:31:46;20.35;;;14.00;;
4903;SDS011;2467;48.142;11.616;2023-01-26T00:32:18;22.13;;;15.43;;
4903;SDS011;2467;48.142;11.616;2023-01-26T00:32:51;17.00;;;12.75;;
4903;SDS011;2467;48.142;11.616;2023-01-26T00:33:23;22.40;;;14.25;;
4903;SDS011;2467;48.142;11.616;2023-01-26T00:33:54;20.45;;;14.23;;
4903;SDS011;2467;48.142;11.616;2023-01-26T00:34:28;18.90;;;13.70;;
4903;SDS011;2467;48.142;11.616;2023-01-26T00:34:59;18.10;;;12.60;;
4903;SDS011;2467;48.142;11.616;2023-01-26T00:35:31;18.00;;;12.85;;
4903;SDS011;2467;48.142;11.616;2023-01-26T00:36:04;19.60;;;13.70;;
4903;SDS011;2467;48.142;11.616;2023-01-26T00:36:38;19.85;;;13.07;;
4903;SDS011;2467;48.142;11.616;2023-01-26T00:37:10;23.55;;;15.60;;
4903;SDS011;2467;48.142;11.616;2023-01-26T00:37:42;17.77;;;13.82;;
4903;SDS011;2467;48.142;11.616;2023-01-26T00:38:15;19.40;;;14.13;;
4903;SDS011;2467;48.142;11.616;2023-01-26T00:38:47;23.40;;;15.23;;
4903;SDS011;2467;48.142;11.616;2023-01-26T00:39:19;18.40;;;11.75;;
4903;SDS011;2467;48.142;11.616;2023-01-26T00:39:51;17.95;;;12.77;;
4903;SDS011;2467;48.142;11.616;2023-01-26T00:40:23;16.30;;;12.90;;
4903;SDS011;2467;48.142;11.616;2023-01-26T00:40:55;20.95;;;13.73;;
4903;SDS011;2467;48.142;11.616;2023-01-26T00:41:27;22.90;;;13.68;;
4903;SDS011;2467;48.142;11.616;2023-01-26T00:42:17;18.35;;;13.18;;
4903;SDS011;2467;48.142;11.616;2023-01-26T00:42:51;18.33;;;12.13;;
4903;SDS011;2467;48.142;11.616;2023-01-26T00:43:24;19.88;;;13.90;;
4903;SDS011;2467;48.142;11.616;2023-01-26T00:43:56;18.00;;;12.65;;
4903;SDS011;2467;48.142;11.616;2023-01-26T00:44:28;21.75;;;13.88;;
4903;SDS011;2467;48.142;11.616;2023-01-26T00:45:01;21.27;;;13.20;;
4903;SDS011;2467;48.142;11.616;2023-01-26T00:45:33;18.60;;;13.40;;
4903;SDS011;2467;48.142;11.616;2023-01-26T00:46:05;19.25;;;12.23;;
4903;SDS011;2467;48.142;11.616;2023-01-26T00:46:38;18.00;;;13.25;;
4903;SDS011;2467;48.142;11.616;2023-01-26T00:47:10;21.40;;;14.15;;
4903;SDS011;2467;48.142;11.616;2023-01-26T00:47:43;18.75;;;13.40;;
4903;SDS011;2467;48.142;11.616;2023-01-26T00:48:16;20.77;;;14.38;;
4903;SDS011;2467;48.142;11.616;2023-01-26T00:48:48;19.95;;;13.85;;
4903;SDS011;2467;48.142;11.616;2023-01-26T00:49:20;17.20;;;12.02;;
4903;SDS011;2467;48.142;11.616;2023-01-26T00:49:52;21.05;;;14.25;;
4903;SDS011;2467;48.142;11.616;2023-01-26T00:50:24;20.38;;;14.00;;
4903;SDS011;2467;48.142;11.616;2023-01-26T00:50:56;19.77;;;13.05;;
4903;SDS011;2467;48.142;11.616;2023-01-26T00:51:28;18.73;;;13.52;;
4903;SDS011;2467;48.142;11.616;2023-01-26T00:52:02;18.65;;;12.77;;
4903;SDS011;2467;48.142;11.616;2023-01-26T00:52:35;18.17;;;12.70;;
4903;SDS011;2467;48.142;11.616;2023-01-26T00:53:07;24.27;;;13.10;;
4903;SDS011;2467;48.142;11.616;2023-01-26T00:53:40;20.75;;;15.02;;
4903;SDS011;2467;48.142;11.616;2023-01-26T00:54:11;17.17;;;12.52;;
4903;SDS011;2467;48.142;11.616;2023-01-26T00:54:44;18.70;;;14.15;;
4903;SDS011;2467;48.142;11.616;2023-01-26T00:55:17;17.60;;;12.10;;
4903;SDS011;2467;48.142;11.616;2023-01-26T00:55:48;20.58;;;15.43;;
4903;SDS011;2467;48.142;11.616;2023-01-26T00:56:20;17.85;;;12.63;;
4903;SDS011;2467;48.142;11.616;2023-01-26T00:56:53;22.67;;;12.35;;
4903;SDS011;2467;48.142;11.616;2023-01-26T00:57:25;16.50;;;12.25;;
4903;SDS011;2467;48.142;11.616;2023-01-26T00:57:57;16.27;;;12.23;;
4903;SDS011;2467;48.142;11.616;2023-01-26T00:58:29;20.05;;;13.55;;
4903;SDS011;2467;48.142;11.616;2023-01-26T00:59:01;18.75;;;14.35;;
4903;SDS011;2467;48.142;11.616;2023-01-26T00:59:34;18.58;;;13.55;;
4903;SDS011;2467;48.142;11.616;2023-01-26T01:00:07;16.98;;;12.15;;
4903;SDS011;2467;48.142;11.616;2023-01-26T01:00:43;18.40;;;12.38;;
4903;SDS011;2467;48.142;11.616;2023-01-26T01:01:15;18.23;;;12.00;;
4903;SDS011;2467;48.142;11.616;2023-01-26T01:01:47;18.48;;;13.60;;
4903;SDS011;2467;48.142;11.616;2023-01-26T01:02:20;17.70;;;13.02;;
4903;SDS011;2467;48.142;11.616;2023-01-26T01:02:52;21.00;;;13.00;;
4903;SDS011;2467;48.142;11.616;2023-01-26T01:03:26;18.83;;;13.30;;
4903;SDS011;2467;48.142;11.616;2023-01-26T01:03:59;20.33;;;12.02;;
4903;SDS011;2467;48.142;11.616;2023-01-26T01:04:31;18.20;;;12.32;;
4903;SDS011;2467;48.142;11.616;2023-01-26T01:05:03;19.45;;;12.73;;
4903;SDS011;2467;48.142;11.616;2023-01-26T01:05:36;18.38;;;12.88;;
4903;SDS011;2467;48.142;11.616;2023-01-26T01:06:08;16.48;;;12.32;;
4903;SDS011;2467;48.142;11.616;2023-01-26T01:06:40;16.35;;;10.75;;
4903;SDS011;2467;48.142;11.616;2023-01-26T01:07:13;18.75;;;12.10;;
4903;SDS011;2467;48.142;11.616;2023-01-26T01:07:46;18.25;;;12.57;;
4903;SDS011;2467;48.142;11.616;2023-01-26T01:08:18;18.77;;;13.50;;
4903;SDS011;2467;48.142;11.616;2023-01-26T01:08:50;22.05;;;16.02;;
4903;SDS011;2467;48.142;11.616;2023-01-26T01:09:23;21.45;;;14.88;;
4903;SDS011;2467;48.142;11.616;2023-01-26T01:09:55;17.33;;;12.57;;
4903;SDS011;2467;48.142;11.616;2023-01-26T01:10:30;19.00;;;13.23;;
4903;SDS011;2467;48.142;11.616;2023-01-26T01:11:03;18.40;;;12.68;;
4903;SDS011;2467;48.142;11.616;2023-01-26T01:11:37;18.10;;;13.07;;
4903;SDS011;2467;48.142;11.616;2023-01-26T01:12:10;19.77;;;12.95;;
4903;SDS011;2467;48.142;11.616;2023-01-26T01:12:42;16.85;;;12.55;;
4903;SDS011;2467;48.142;11.616;2023-01-26T01:13:14;18.35;;;12.90;;
4903;SDS011;2467;48.142;11.616;2023-01-26T01:13:46;20.23;;;13.88;;
4903;SDS011;2467;48.142;11.616;2023-01-26T01:14:18;16.77;;;12.93;;
4903;SDS011;2467;48.142;11.616;2023-01-26T01:14:50;22.95;;;14.80;;
4903;SDS011;2467;48.142;11.616;2023-01-26T01:15:23;21.45;;;14.38;;
4903;SDS011;2467;48.142;11.616;2023-01-26T01:15:56;21.73;;;15.32;;
4903;SDS011;2467;48.142;11.616;2023-01-26T01:16:28;19.40;;;13.90;;
4903;SDS011;2467;48.142;11.616;2023-01-26T01:17:01;19.17;;;12.57;;
4903;SDS011;2467;48.142;11.616;2023-01-26T01:17:33;18.95;;;12.20;;
4903;SDS011;2467;48.142;11.616;2023-01-26T01:18:06;18.33;;;13.07;;
4903;SDS011;2467;48.142;11.616;2023-01-26T01:18:39;18.65;;;13.60;;
4903;SDS011;2467;48.142;11.616;2023-01-26T01:19:12;18.38;;;14.15;;
4903;SDS011;2467;48.142;11.616;2023-01-26T01:19:44;17.48;;;13.65;;
4903;SDS011;2467;48.142;11.616;2023-01-26T01:20:17;18.75;;;14.05;;
4903;SDS011;2467;48.142;11.616;2023-01-26T01:20:49;17.98;;;12.32;;
4903;SDS011;2467;48.142;11.616;2023-01-26T01:21:21;18.92;;;13.57;;
4903;SDS011;2467;48.142;11.616;2023-01-26T01:21:55;19.15;;;14.25;;
4903;SDS011;2467;48.142;11.616;2023-01-26T01:22:28;21.02;;;15.65;;
4903;SDS011;2467;48.142;11.616;2023-01-26T01:23:00;17.02;;;13.20;;
4903;SDS011;2467;48.142;11.616;2023-01-26T01:23:33;19.63;;;13.50;;
4903;SDS011;2467;48.142;11.616;2023-01-26T01:24:05;18.30;;;13.65;;
4903;SDS011;2467;48.142;11.616;2023-01-26T01:24:37;18.25;;;14.13;;
4903;SDS011;2467;48.142;11.616;2023-01-26T01:25:10;19.85;;;12.88;;
4903;SDS011;2467;48.142;11.616;2023-01-26T01:25:42;19.52;;;13.30;;
4903;SDS011;2467;48.142;11.616;2023-01-26T01:26:14;19.02;;;13.18;;
4903;SDS011;2467;48.142;11.616;2023-01-26T01:26:47;17.20;;;11.90;;
4903;SDS011;2467;48.142;11.616;2023-01-26T01:27:19;19.10;;;13.30;;
4903;SDS011;2467;48.142;11.616;2023-01-26T01:27:51;20.90;;;13.20;;
4903;SDS011;2467;48.142;11.616;2023-01-26T01:28:24;18.52;;;13.85;;
4903;SDS011;2467;48.142;11.616;2023-01-26T01:28:56;20.08;;;14.15;;
4903;SDS011;2467;48.142;11.616;2023-01-26T01:29:28;21.98;;;15.15;;
4903;SDS011;2467;48.142;11.616;2023-01-26T01:30:00;18.90;;;12.77;;
4903;SDS011;2467;48.142;11.616;2023-01-26T01:30:37;18.02;;;13.93;;
4903;SDS011;2467;48.142;11.616;2023-01-26T01:31:10;19.35;;;12.27;;
4903;SDS011;2467;48.142;11.616;2023-01-26T01:31:43;21.98;;;13.88;;
4903;SDS011;2467;48.142;11.616;2023-01-26T01:32:16;18.58;;;13.55;;
4903;SDS011;2467;48.142;11.616;2023-01-26T01:32:48;18.05;;;13.38;;
4903;SDS011;2467;48.142;11.616;2023-01-26T01:33:21;18.88;;;13.13;;
4903;SDS011;2467;48.142;11.616;2023-01-26T01:33:54;21.52;;;13.90;;
4903;SDS011;2467;48.142;11.616;2023-01-26T01:34:27;15.38;;;12.60;;
4903;SDS011;2467;48.142;11.616;2023-01-26T01:34:59;23.77;;;14.05;;
4903;SDS011;2467;48.142;11.616;2023-01-26T01:35:31;15.82;;;11.63;;
4903;SDS011;2467;48.142;11.616;2023-01-26T01:36:06;18.40;;;11.70;;
4903;SDS011;2467;48.142;11.616;2023-01-26T01:36:39;20.23;;;13.90;;
4903;SDS011;2467;48.142;11.616;2023-01-26T01:37:11;20.85;;;13.10;;
4903;SDS011;2467;48.142;11.616;2023-01-26T01:37:45;20.08;;;13.02;;
4903;SDS011;2467;48.142;11.616;2023-01-26T01:38:17;18.85;;;13.25;;
4903;SDS011;2467;48.142;11.616;2023-01-26T01:38:48;19.00;;;13.07;;
4903;SDS011;2467;48.142;11.616;2023-01-26T01:39:21;20.13;;;13.93;;
4903;SDS011;2467;48.142;11.616;2023-01-26T01:39:53;17.13;;;12.98;;
4903;SDS011;2467;48.142;11.616;2023-01-26T01:40:25;17.90;;;13.15;;
4903;SDS011;2467;48.142;11.616;2023-01-26T01:40:58;18.67;;;13.27;;
4903;SDS011;2467;48.142;11.616;2023-01-26T01:41:30;20.02;;;15.13;;
4903;SDS011;2467;48.142;11.616;2023-01-26T01:42:02;18.63;;;13.35;;
4903;SDS011;2467;48.142;11.616;2023-01-26T01:42:35;17.88;;;13.18;;
4903;SDS011;2467;48.142;11.616;2023-01-26T01:43:08;17.98;;;13.55;;
4903;SDS011;2467;48.142;11.616;2023-01-26T01:43:41;18.17;;;14.00;;
4903;SDS011;2467;48.142;11.616;2023-01-26T01:44:15;15.60;;;11.65;;
4903;SDS011;2467;48.142;11.616;2023-01-26T01:45:54;20.25;;;13.15;;
4903;SDS011;2467;48.142;11.616;2023-01-26T01:46:28;19.33;;;12.45;;
4903;SDS011;2467;48.142;11.616;2023-01-26T01:47:03;21.77;;;14.90;;
4903;SDS011;2467;48.142;11.616;2023-01-26T01:47:36;20.92;;;12.95;;
4903;SDS011;2467;48.142;11.616;2023-01-26T01:48:14;17.98;;;12.52;;
4903;SDS011;2467;48.142;11.616;2023-01-26T01:48:51;18.02;;;13.30;;
4903;SDS011;2467;48.142;11.616;2023-01-26T01:49:27;17.08;;;12.85;;
4903;SDS011;2467;48.142;11.616;2023-01-26T01:50:02;16.45;;;12.35;;
4903;SDS011;2467;48.142;11.616;2023-01-26T01:50:35;18.52;;;13.15;;
4903;SDS011;2467;48.142;11.616;2023-01-26T01:51:12;23.08;;;14.50;;
4903;SDS011;2467;48.142;11.616;2023-01-26T01:51:49;17.60;;;12.80;;
4903;SDS011;2467;48.142;11.616;2023-01-26T01:52:25;17.10;;;13.05;;
4903;SDS011;2467;48.142;11.616;2023-01-26T01:53:01;19.45;;;12.88;;
4903;SDS011;2467;48.142;11.616;2023-01-26T01:53:36;19.73;;;11.93;;
4903;SDS011;2467;48.142;11.616;2023-01-26T01:54:11;21.05;;;12.95;;
4903;SDS011;2467;48.142;11.616;2023-01-26T01:54:47;16.08;;;11.45;;
4903;SDS011;2467;48.142;11.616;2023-01-26T01:55:22;17.33;;;12.82;;
4903;SDS011;2467;48.142;11.616;2023-01-26T01:55:56;18.60;;;13.85;;
4903;SDS011;2467;48.142;11.616;2023-01-26T01:56:31;14.07;;;10.85;;
4903;SDS011;2467;48.142;11.616;2023-01-26T01:57:05;21.35;;;12.82;;
4903;SDS011;2467;48.142;11.616;2023-01-26T01:57:46;20.70;;;13.43;;
4903;SDS011;2467;48.142;11.616;2023-01-26T01:58:22;16.58;;;11.98;;
4903;SDS011;2467;48.142;11.616;2023-01-26T01:58:55;16.30;;;11.48;;
4903;SDS011;2467;48.142;11.616;2023-01-26T01:59:29;17.65;;;13.50;;
4903;SDS011;2467;48.142;11.616;2023-01-26T02:00:04;20.60;;;13.13;;
4903;SDS011;2467;48.142;11.616;2023-01-26T02:00:40;19.13;;;11.63;;
4903;SDS011;2467;48.142;11.616;2023-01-26T02:01:13;19.25;;;11.77;;
4903;SDS011;2467;48.142;11.616;2023-01-26T02:01:47;17.75;;;12.82;;
4903;SDS011;2467;48.142;11.616;2023-01-26T02:02:21;16.25;;;11.68;;
4903;SDS011;2467;48.142;11.616;2023-01-26T02:02:54;21.23;;;13.05;;
4903;SDS011;2467;48.142;11.616;2023-01-26T02:03:42;16.50;;;12.45;;
4903;SDS011;2467;48.142;11.616;2023-01-26T02:04:17;18.73;;;13.07;;
4903;SDS011;2467;48.142;11.616;2023-01-26T02:04:52;16.77;;;11.88;;
4903;SDS011;2467;48.142;11.616;2023-01-26T02:05:30;21.05;;;13.07;;
4903;SDS011;2467;48.142;11.616;2023-01-26T02:06:06;19.05;;;14.23;;
4903;SDS011;2467;48.142;11.616;2023-01-26T02:06:45;18.25;;;12.00;;
4903;SDS011;2467;48.142;11.616;2023-01-26T02:07:19;15.77;;;11.77;;
4903;SDS011;2467;48.142;11.616;2023-01-26T02:07:51;16.73;;;10.98;;
4903;SDS011;2467;48.142;11.616;2023-01-26T02:08:26;18.60;;;14.38;;
4903;SDS011;2467;48.142;11.616;2023-01-26T02:09:03;20.38;;;12.45;;
4903;SDS011;2467;48.142;11.616;2023-01-26T02:09:37;17.05;;;12.20;;
4903;SDS011;2467;48.142;11.616;2023-01-26T02:10:30;15.63;;;12.35;;
4903;SDS011;2467;48.142;11.616;2023-01-26T02:11:04;19.60;;;13.30;;
4903;SDS011;2467;48.142;11.616;2023-01-26T02:11:40;14.27;;;11.38;;
4903;SDS011;2467;48.142;11.616;2023-01-26T02:12:15;14.27;;;11.50;;
4903;SDS011;2467;48.142;11.616;2023-01-26T02:12:52;20.73;;;14.77;;
4903;SDS011;2467;48.142;11.616;2023-01-26T02:13:26;17.10;;;13.10;;
4903;SDS011;2467;48.142;11.616;2023-01-26T02:13:59;16.52;;;12.05;;
4903;SDS011;2467;48.142;11.616;2023-01-26T02:14:33;18.67;;;13.70;;
4903;SDS011;2467;48.142;11.616;2023-01-26T02:15:06;19.55;;;13.38;;
4903;SDS011;2467;48.142;11.616;2023-01-26T02:15:38;20.45;;;13.32;;
4903;SDS011;2467;48.142;11.616;2023-01-26T02:16:10;18.63;;;12.75;;
4903;SDS011;2467;48.142;11.616;2023-01-26T02:16:43;22.05;;;14.20;;
4903;SDS011;2467;48.142;11.616;2023-01-26T02:17:15;19.42;;;13.23;;
4903;SDS011;2467;48.142;11.616;2023-01-26T02:17:47;18.63;;;13.80;;
4903;SDS011;2467;48.142;11.616;2023-01-26T02:18:21;19.52;;;13.38;;
4903;SDS011;2467;48.142;11.616;2023-01-26T02:18:54;20.38;;;14.30;;
4903;SDS011;2467;48.142;11.616;2023-01-26T02:19:26;21.77;;;13.40;;
4903;SDS011;2467;48.142;11.616;2023-01-26T02:20:10;22.05;;;14.90;;
4903;SDS011;2467;48.142;11.616;2023-01-26T02:20:49;19.35;;;13.63;;
4903;SDS011;2467;48.142;11.616;2023-01-26T02:21:23;20.10;;;13.30;;
4903;SDS011;2467;48.142;11.616;2023-01-26T02:21:55;17.70;;;12.80;;
4903;SDS011;2467;48.142;11.616;2023-01-26T02:22:33;17.48;;;13.07;;
4903;SDS011;2467;48.142;11.616;2023-01-26T02:23:23;17.15;;;12.57;;
4903;SDS011;2467;48.142;11.616;2023-01-26T02:24:06;16.30;;;13.07;;
4903;SDS011;2467;48.142;11.616;2023-01-26T02:24:44;20.13;;;12.88;;
4903;SDS011;2467;48.142;11.616;2023-01-26T02:25:18;19.83;;;12.77;;
4903;SDS011;2467;48.142;11.616;2023-01-26T02:26:03;19.83;;;13.00;;
4903;SDS011;2467;48.142;11.616;2023-01-26T02:26:38;21.95;;;13.13;;
4903;SDS011;2467;48.142;11.616;2023-01-26T02:27:10;16.90;;;12.35;;
4903;SDS011;2467;48.142;11.616;2023-01-26T02:27:42;18.88;;;12.15;;
4903;SDS011;2467;48.142;11.616;2023-01-26T02:28:15;19.15;;;12.85;;
4903;SDS011;2467;48.142;11.616;2023-01-26T02:28:48;20.63;;;13.85;;
4903;SDS011;2467;48.142;11.616;2023-01-26T02:29:21;17.77;;;13.65;;
4903;SDS011;2467;48.142;11.616;2023-01-26T02:29:53;18.17;;;13.32;;
4903;SDS011;2467;48.142;11.616;2023-01-26T02:30:26;17.65;;;12.48;;
4903;SDS011;2467;48.142;11.616;2023-01-26T02:31:00;18.10;;;12.50;;
4903;SDS011;2467;48.142;11.616;2023-01-26T02:31:32;20.27;;;13.05;;
4903;SDS011;2467;48.142;11.616;2023-01-26T02:32:05;17.42;;;12.60;;
4903;SDS011;2467;48.142;11.616;2023-01-26T02:32:38;21.75;;;13.55;;
4903;SDS011;2467;48.142;11.616;2023-01-26T02:33:13;17.95;;;12.63;;
4903;SDS011;2467;48.142;11.616;2023-01-26T02:33:45;19.10;;;12.70;;
4903;SDS011;2467;48.142;11.616;2023-01-26T02:34:18;20.15;;;13.88;;
4903;SDS011;2467;48.142;11.616;2023-01-26T02:34:54;21.20;;;13.75;;
4903;SDS011;2467;48.142;11.616;2023-01-26T02:35:26;24.38;;;14.23;;
4903;SDS011;2467;48.142;11.616;2023-01-26T02:35:59;20.02;;;13.38;;
4903;SDS011;2467;48.142;11.616;2023-01-26T02:36:32;20.55;;;14.55;;
4903;SDS011;2467;48.142;11.616;2023-01-26T02:37:11;19.73;;;13.48;;
4903;SDS011;2467;48.142;11.616;2023-01-26T02:37:44;17.10;;;13.07;;
4903;SDS011;2467;48.142;11.616;2023-01-26T02:38:16;20.05;;;14.80;;
4903;SDS011;2467;48.142;11.616;2023-01-26T02:38:54;20.02;;;14.30;;
4903;SDS011;2467;48.142;11.616;2023-01-26T02:39:35;20.15;;;14.40;;
4903;SDS011;2467;48.142;11.616;2023-01-26T02:40:17;20.85;;;14.57;;
4903;SDS011;2467;48.142;11.616;2023-01-26T02:40:57;20.42;;;14.40;;
4903;SDS011;2467;48.142;11.616;2023-01-26T02:41:31;19.27;;;13.63;;
4903;SDS011;2467;48.142;11.616;2023-01-26T02:42:22;22.23;;;14.60;;
4903;SDS011;2467;48.142;11.616;2023-01-26T02:43:09;21.80;;;13.07;;
4903;SDS011;2467;48.142;11.616;2023-01-26T02:43:42;19.50;;;14.05;;
4903;SDS011;2467;48.142;11.616;2023-01-26T02:44:14;19.13;;;13.48;;
4903;SDS011;2467;48.142;11.616;2023-01-26T02:44:46;16.27;;;11.63;;
4903;SDS011;2467;48.142;11.616;2023-01-26T02:45:18;16.45;;;11.80;;
4903;SDS011;2467;48.142;11.616;2023-01-26T02:45:53;18.60;;;12.95;;
4903;SDS011;2467;48.142;11.616;2023-01-26T02:46:25;18.35;;;11.95;;
4903;SDS011;2467;48.142;11.616;2023-01-26T02:46:57;20.00;;;13.85;;
4903;SDS011;2467;48.142;11.616;2023-01-26T02:47:29;18.02;;;13.98;;
4903;SDS011;2467;48.142;11.616;2023-01-26T02:48:02;17.55;;;13.00;;
4903;SDS011;2467;48.142;11.616;2023-01-26T02:48:36;18.77;;;12.60;;
4903;SDS011;2467;48.142;11.616;2023-01-26T02:49:26;18.10;;;12.40;;
4903;SDS011;2467;48.142;11.616;2023-01-26T02:50:17;20.95;;;12.43;;
4903;SDS011;2467;48.142;11.616;2023-01-26T02:50:48;19.98;;;13.15;;
4903;SDS011;2467;48.142;11.616;2023-01-26T02:51:20;18.88;;;14.35;;
4903;SDS011;2467;48.142;11.616;2023-01-26T02:51:53;20.95;;;13.63;;
4903;SDS011;2467;48.142;11.616;2023-01-26T02:52:25;20.35;;;13.38;;
4903;SDS011;2467;48.142;11.616;2023-01-26T02:52:58;19.52;;;12.82;;
4903;SDS011;2467;48.142;11.616;2023-01-26T02:53:32;19.88;;;12.18;;
4903;SDS011;2467;48.142;11.616;2023-01-26T02:54:04;15.23;;;11.15;;
4903;SDS011;2467;48.142;11.616;2023-01-26T02:54:35;18.25;;;12.65;;
4903;SDS011;2467;48.142;11.616;2023-01-26T02:55:25;17.02;;;13.30;;
4903;SDS011;2467;48.142;11.616;2023-01-26T02:55:58;18.67;;;13.40;;
4903;SDS011;2467;48.142;11.616;2023-01-26T02:56:32;20.90;;;12.73;;
4903;SDS011;2467;48.142;11.616;2023-01-26T02:57:04;17.73;;;13.60;;
4903;SDS011;2467;48.142;11.616;2023-01-26T02:57:36;19.17;;;14.23;;
4903;SDS011;2467;48.142;11.616;2023-01-26T02:58:08;23.02;;;16.70;;
4903;SDS011;2467;48.142;11.616;2023-01-26T02:58:41;19.92;;;14.63;;
4903;SDS011;2467;48.142;11.616;2023-01-26T02:59:13;20.60;;;14.25;;
4903;SDS011;2467;48.142;11.616;2023-01-26T02:59:45;22.10;;;16.45;;
4903;SDS011;2467;48.142;11.616;2023-01-26T03:00:17;23.77;;;14.85;;
4903;SDS011;2467;48.142;11.616;2023-01-26T03:00:52;21.10;;;14.55;;
4903;SDS011;2467;48.142;11.616;2023-01-26T03:01:24;19.48;;;13.82;;
4903;SDS011;2467;48.142;11.616;2023-01-26T03:01:56;20.95;;;14.10;;
4903;SDS011;2467;48.142;11.616;2023-01-26T03:02:28;17.13;;;13.13;;
4903;SDS011;2467;48.142;11.616;2023-01-26T03:03:01;22.63;;;13.05;;
4903;SDS011;2467;48.142;11.616;2023-01-26T03:03:39;13.77;;;11.77;;
4903;SDS011;2467;48.142;11.616;2023-01-26T03:04:15;19.80;;;13.98;;
4903;SDS011;2467;48.142;11.616;2023-01-26T03:04:47;18.90;;;12.65;;
4903;SDS011;2467;48.142;11.616;2023-01-26T03:05:19;17.83;;;12.60;;
4903;SDS011;2467;48.142;11.616;2023-01-26T03:05:51;16.60;;;12.25;;
4903;SDS011;2467;48.142;11.616;2023-01-26T03:06:24;16.63;;;12.88;;
4903;SDS011;2467;48.142;11.616;2023-01-26T03:06:55;18.58;;;13.02;;
4903;SDS011;2467;48.142;11.616;2023-01-26T03:07:27;16.90;;;11.57;;
4903;SDS011;2467;48.142;11.616;2023-01-26T03:08:00;17.20;;;12.18;;
4903;SDS011;2467;48.142;11.616;2023-01-26T03:08:32;22.60;;;11.82;;
4903;SDS011;2467;48.142;11.616;2023-01-26T03:09:05;15.77;;;12.20;;
4903;SDS011;2467;48.142;11.616;2023-01-26T03:09:37;18.90;;;13.13;;
4903;SDS011;2467;48.142;11.616;2023-01-26T03:10:10;15.95;;;11.80;;
4903;SDS011;2467;48.142;11.616;2023-01-26T03:10:43;15.38;;;11.90;;
4903;SDS011;2467;48.142;11.616;2023-01-26T03:11:17;19.10;;;12.57;;
4903;SDS011;2467;48.142;11.616;2023-01-26T03:11:50;18.48;;;12.57;;
4903;SDS011;2467;48.142;11.616;2023-01-26T03:12:22;17.13;;;12.63;;
4903;SDS011;2467;48.142;11.616;2023-01-26T03:12:55;18.63;;;13.25;;
4903;SDS011;2467;48.142;11.616;2023-01-26T03:13:27;15.77;;;12.02;;
4903;SDS011;2467;48.142;11.616;2023-01-26T03:14:00;16.42;;;12.20;;
4903;SDS011;2467;48.142;11.616;2023-01-26T03:14:32;16.85;;;11.57;;
4903;SDS011;2467;48.142;11.616;2023-01-26T03:15:04;18.25;;;13.70;;
4903;SDS011;2467;48.142;11.616;2023-01-26T03:15:56;22.27;;;16.50;;
4903;SDS011;2467;48.142;11.616;2023-01-26T03:16:37;55.90;;;38.05;;
4903;SDS011;2467;48.142;11.616;2023-01-26T03:17:09;101.32;;;70.65;;
4903;SDS011;2467;48.142;11.616;2023-01-26T03:17:41;77.25;;;55.35;;
4903;SDS011;2467;48.142;11.616;2023-01-26T03:18:15;53.42;;;35.55;;
4903;SDS011;2467;48.142;11.616;2023-01-26T03:19:06;39.70;;;28.25;;
4903;SDS011;2467;48.142;11.616;2023-01-26T03:19:58;28.52;;;18.75;;
4903;SDS011;2467;48.142;11.616;2023-01-26T03:20:49;24.27;;;13.98;;
4903;SDS011;2467;48.142;11.616;2023-01-26T03:21:39;22.60;;;16.08;;
4903;SDS011;2467;48.142;11.616;2023-01-26T03:22:30;22.00;;;14.32;;